sensor_id;sensor_type;location;lat;lon;timestamp;P1;durP1;ratioP1;P2;durP2;ratioP2
75928;SDS011;64606;44.062;2.986;2023-07-13T00:01:28;3.97;;;2.10;;
75928;SDS011;64606;44.062;2.986;2023-07-13T00:03:56;2.95;;;1.60;;
75928;SDS011;64606;44.062;2.986;2023-07-13T00:06:22;3.45;;;1.75;;
75928;SDS011;64606;44.062;2.986;2023-07-13T00:08:48;3.55;;;1.90;;
75928;SDS011;64606;44.062;2.986;2023-07-13T00:11:15;2.63;;;1.88;;
75928;SDS011;64606;44.062;2.986;2023-07-13T00:13:42;5.13;;;2.08;;
75928;SDS011;64606;44.062;2.986;2023-07-13T00:16:09;2.88;;;1.75;;
75928;SDS011;64606;44.062;2.986;2023-07-13T00:18:36;5.78;;;2.10;;
75928;SDS011;64606;44.062;2.986;2023-07-13T00:21:03;6.07;;;1.92;;
75928;SDS011;64606;44.062;2.986;2023-07-13T00:23:33;5.28;;;1.80;;
75928;SDS011;64606;44.062;2.986;2023-07-13T00:26:00;2.92;;;2.00;;
75928;SDS011;64606;44.062;2.986;2023-07-13T00:28:27;3.45;;;1.90;;
75928;SDS011;64606;44.062;2.986;2023-07-13T00:30:53;4.63;;;1.90;;
75928;SDS011;64606;44.062;2.986;2023-07-13T00:33:19;3.15;;;2.00;;
75928;SDS011;64606;44.062;2.986;2023-07-13T00:35:45;5.43;;;1.90;;
75928;SDS011;64606;44.062;2.986;2023-07-13T00:38:11;2.53;;;1.90;;
75928;SDS011;64606;44.062;2.986;2023-07-13T00:40:37;5.28;;;1.90;;
75928;SDS011;64606;44.062;2.986;2023-07-13T00:43:05;5.22;;;1.65;;
75928;SDS011;64606;44.062;2.986;2023-07-13T00:50:35;6.05;;;2.17;;
75928;SDS011;64606;44.062;2.986;2023-07-13T00:53:02;4.20;;;1.50;;
75928;SDS011;64606;44.062;2.986;2023-07-13T00:55:28;2.72;;;1.77;;
75928;SDS011;64606;44.062;2.986;2023-07-13T00:57:55;7.45;;;2.20;;
75928;SDS011;64606;44.062;2.986;2023-07-13T01:00:21;3.33;;;1.80;;
75928;SDS011;64606;44.062;2.986;2023-07-13T01:02:48;4.90;;;1.90;;
75928;SDS011;64606;44.062;2.986;2023-07-13T01:05:16;2.97;;;1.60;;
75928;SDS011;64606;44.062;2.986;2023-07-13T01:07:43;5.13;;;1.80;;
75928;SDS011;64606;44.062;2.986;2023-07-13T01:10:11;3.90;;;2.30;;
75928;SDS011;64606;44.062;2.986;2023-07-13T01:12:37;5.13;;;2.20;;
75928;SDS011;64606;44.062;2.986;2023-07-13T01:15:04;5.78;;;2.05;;
75928;SDS011;64606;44.062;2.986;2023-07-13T01:17:31;3.67;;;1.92;;
75928;SDS011;64606;44.062;2.986;2023-07-13T01:19:58;3.83;;;1.85;;
75928;SDS011;64606;44.062;2.986;2023-07-13T01:22:25;3.10;;;1.70;;
75928;SDS011;64606;44.062;2.986;2023-07-13T01:24:52;3.28;;;2.20;;
75928;SDS011;64606;44.062;2.986;2023-07-13T01:27:23;3.72;;;2.03;;
75928;SDS011;64606;44.062;2.986;2023-07-13T01:29:53;4.37;;;1.90;;
75928;SDS011;64606;44.062;2.986;2023-07-13T01:32:27;3.13;;;2.05;;
75928;SDS011;64606;44.062;2.986;2023-07-13T01:34:53;3.80;;;1.92;;
75928;SDS011;64606;44.062;2.986;2023-07-13T01:37:20;3.35;;;2.25;;
75928;SDS011;64606;44.062;2.986;2023-07-13T01:39:46;3.10;;;1.70;;
75928;SDS011;64606;44.062;2.986;2023-07-13T01:42:13;5.07;;;2.10;;
75928;SDS011;64606;44.062;2.986;2023-07-13T01:44:39;3.78;;;2.05;;
75928;SDS011;64606;44.062;2.986;2023-07-13T01:47:05;3.58;;;1.80;;
75928;SDS011;64606;44.062;2.986;2023-07-13T01:49:32;5.30;;;2.13;;
75928;SDS011;64606;44.062;2.986;2023-07-13T01:51:58;2.97;;;1.85;;
75928;SDS011;64606;44.062;2.986;2023-07-13T01:54:24;3.08;;;1.90;;
75928;SDS011;64606;44.062;2.986;2023-07-13T01:56:50;4.70;;;2.15;;
75928;SDS011;64606;44.062;2.986;2023-07-13T01:59:16;4.68;;;1.98;;
75928;SDS011;64606;44.062;2.986;2023-07-13T02:01:42;3.40;;;1.95;;
75928;SDS011;64606;44.062;2.986;2023-07-13T02:04:08;3.88;;;2.10;;
75928;SDS011;64606;44.062;2.986;2023-07-13T02:06:35;4.22;;;1.80;;
75928;SDS011;64606;44.062;2.986;2023-07-13T02:09:01;3.10;;;1.77;;
75928;SDS011;64606;44.062;2.986;2023-07-13T02:11:28;4.32;;;1.95;;
75928;SDS011;64606;44.062;2.986;2023-07-13T02:13:58;4.03;;;2.20;;
75928;SDS011;64606;44.062;2.986;2023-07-13T02:16:25;4.85;;;1.83;;
75928;SDS011;64606;44.062;2.986;2023-07-13T02:18:51;2.78;;;1.75;;
75928;SDS011;64606;44.062;2.986;2023-07-13T02:21:17;4.25;;;1.95;;
75928;SDS011;64606;44.062;2.986;2023-07-13T02:23:43;3.67;;;1.67;;
75928;SDS011;64606;44.062;2.986;2023-07-13T02:26:09;4.85;;;2.15;;
75928;SDS011;64606;44.062;2.986;2023-07-13T02:28:36;4.75;;;1.98;;
75928;SDS011;64606;44.062;2.986;2023-07-13T02:31:08;3.70;;;2.10;;
75928;SDS011;64606;44.062;2.986;2023-07-13T02:33:34;3.47;;;2.10;;
75928;SDS011;64606;44.062;2.986;2023-07-13T02:36:00;3.80;;;1.88;;
75928;SDS011;64606;44.062;2.986;2023-07-13T02:38:26;6.30;;;1.98;;
75928;SDS011;64606;44.062;2.986;2023-07-13T02:40:53;6.53;;;2.05;;
75928;SDS011;64606;44.062;2.986;2023-07-13T02:43:19;3.65;;;1.85;;
75928;SDS011;64606;44.062;2.986;2023-07-13T02:45:45;3.45;;;1.88;;
75928;SDS011;64606;44.062;2.986;2023-07-13T02:48:13;2.53;;;1.70;;
75928;SDS011;64606;44.062;2.986;2023-07-13T02:50:39;4.18;;;1.70;;
75928;SDS011;64606;44.062;2.986;2023-07-13T02:53:05;4.95;;;2.30;;
75928;SDS011;64606;44.062;2.986;2023-07-13T02:55:31;2.72;;;1.90;;
75928;SDS011;64606;44.062;2.986;2023-07-13T02:57:57;3.45;;;1.85;;
75928;SDS011;64606;44.062;2.986;2023-07-13T03:00:23;6.28;;;2.00;;
75928;SDS011;64606;44.062;2.986;2023-07-13T03:02:50;3.70;;;2.20;;
75928;SDS011;64606;44.062;2.986;2023-07-13T03:05:16;4.65;;;1.90;;
75928;SDS011;64606;44.062;2.986;2023-07-13T03:07:42;4.13;;;2.10;;
75928;SDS011;64606;44.062;2.986;2023-07-13T03:10:09;2.67;;;2.00;;
75928;SDS011;64606;44.062;2.986;2023-07-13T03:12:35;4.80;;;1.88;;
75928;SDS011;64606;44.062;2.986;2023-07-13T03:15:01;3.55;;;1.90;;
75928;SDS011;64606;44.062;2.986;2023-07-13T03:17:27;4.07;;;1.90;;
75928;SDS011;64606;44.062;2.986;2023-07-13T03:19:53;3.03;;;1.73;;
75928;SDS011;64606;44.062;2.986;2023-07-13T03:22:19;3.88;;;2.10;;
75928;SDS011;64606;44.062;2.986;2023-07-13T03:24:46;6.57;;;2.13;;
75928;SDS011;64606;44.062;2.986;2023-07-13T03:27:13;3.00;;;1.98;;
75928;SDS011;64606;44.062;2.986;2023-07-13T03:29:39;6.45;;;2.10;;
75928;SDS011;64606;44.062;2.986;2023-07-13T03:32:06;5.57;;;2.03;;
75928;SDS011;64606;44.062;2.986;2023-07-13T03:34:32;7.35;;;2.20;;
75928;SDS011;64606;44.062;2.986;2023-07-13T03:36:58;5.80;;;2.25;;
75928;SDS011;64606;44.062;2.986;2023-07-13T03:39:24;3.88;;;2.25;;
75928;SDS011;64606;44.062;2.986;2023-07-13T03:41:50;2.33;;;1.67;;
75928;SDS011;64606;44.062;2.986;2023-07-13T03:44:17;3.20;;;1.80;;
75928;SDS011;64606;44.062;2.986;2023-07-13T03:46:43;3.15;;;1.83;;
75928;SDS011;64606;44.062;2.986;2023-07-13T03:49:09;7.53;;;2.03;;
75928;SDS011;64606;44.062;2.986;2023-07-13T03:51:36;2.65;;;1.63;;
75928;SDS011;64606;44.062;2.986;2023-07-13T03:54:02;3.90;;;1.98;;
75928;SDS011;64606;44.062;2.986;2023-07-13T03:56:28;4.95;;;2.45;;
75928;SDS011;64606;44.062;2.986;2023-07-13T03:58:55;2.97;;;1.80;;
75928;SDS011;64606;44.062;2.986;2023-07-13T04:01:22;3.47;;;1.80;;
75928;SDS011;64606;44.062;2.986;2023-07-13T04:03:50;3.60;;;2.13;;
75928;SDS011;64606;44.062;2.986;2023-07-13T04:06:20;3.78;;;1.80;;
75928;SDS011;64606;44.062;2.986;2023-07-13T04:08:49;4.95;;;1.77;;
75928;SDS011;64606;44.062;2.986;2023-07-13T04:11:15;7.00;;;2.20;;
75928;SDS011;64606;44.062;2.986;2023-07-13T04:13:42;5.75;;;1.90;;
75928;SDS011;64606;44.062;2.986;2023-07-13T04:16:08;12.27;;;2.70;;
75928;SDS011;64606;44.062;2.986;2023-07-13T04:18:34;2.10;;;1.77;;
75928;SDS011;64606;44.062;2.986;2023-07-13T04:21:01;4.10;;;1.75;;
75928;SDS011;64606;44.062;2.986;2023-07-13T04:23:27;4.82;;;2.15;;
75928;SDS011;64606;44.062;2.986;2023-07-13T04:25:53;5.28;;;1.77;;
75928;SDS011;64606;44.062;2.986;2023-07-13T04:28:23;4.97;;;1.98;;
75928;SDS011;64606;44.062;2.986;2023-07-13T04:30:49;5.90;;;2.30;;
75928;SDS011;64606;44.062;2.986;2023-07-13T04:33:16;2.75;;;1.80;;
75928;SDS011;64606;44.062;2.986;2023-07-13T04:35:43;5.82;;;2.00;;
75928;SDS011;64606;44.062;2.986;2023-07-13T04:38:11;4.10;;;1.95;;
75928;SDS011;64606;44.062;2.986;2023-07-13T04:40:38;2.42;;;1.80;;
75928;SDS011;64606;44.062;2.986;2023-07-13T04:43:04;4.97;;;1.80;;
75928;SDS011;64606;44.062;2.986;2023-07-13T04:45:30;2.83;;;1.83;;
75928;SDS011;64606;44.062;2.986;2023-07-13T04:47:56;3.95;;;2.00;;
75928;SDS011;64606;44.062;2.986;2023-07-13T04:50:22;5.90;;;1.75;;
75928;SDS011;64606;44.062;2.986;2023-07-13T04:52:49;4.97;;;1.80;;
75928;SDS011;64606;44.062;2.986;2023-07-13T04:55:15;13.60;;;2.75;;
75928;SDS011;64606;44.062;2.986;2023-07-13T04:57:42;3.63;;;2.15;;
75928;SDS011;64606;44.062;2.986;2023-07-13T05:00:08;6.78;;;1.60;;
75928;SDS011;64606;44.062;2.986;2023-07-13T05:02:35;3.80;;;1.88;;
75928;SDS011;64606;44.062;2.986;2023-07-13T05:05:01;2.97;;;1.80;;
75928;SDS011;64606;44.062;2.986;2023-07-13T05:07:28;5.00;;;1.98;;
75928;SDS011;64606;44.062;2.986;2023-07-13T05:09:55;4.53;;;1.85;;
75928;SDS011;64606;44.062;2.986;2023-07-13T05:12:21;4.38;;;1.90;;
75928;SDS011;64606;44.062;2.986;2023-07-13T05:14:47;3.70;;;1.50;;
75928;SDS011;64606;44.062;2.986;2023-07-13T05:17:14;4.03;;;1.70;;
75928;SDS011;64606;44.062;2.986;2023-07-13T05:19:40;3.85;;;1.67;;
75928;SDS011;64606;44.062;2.986;2023-07-13T05:22:06;3.28;;;1.70;;
75928;SDS011;64606;44.062;2.986;2023-07-13T05:24:33;3.75;;;1.60;;
75928;SDS011;64606;44.062;2.986;2023-07-13T05:26:59;4.05;;;1.80;;
75928;SDS011;64606;44.062;2.986;2023-07-13T05:29:25;2.47;;;1.40;;
75928;SDS011;64606;44.062;2.986;2023-07-13T05:31:51;6.43;;;1.80;;
75928;SDS011;64606;44.062;2.986;2023-07-13T05:34:17;2.97;;;1.83;;
75928;SDS011;64606;44.062;2.986;2023-07-13T05:36:44;6.45;;;1.98;;
75928;SDS011;64606;44.062;2.986;2023-07-13T05:39:10;3.58;;;1.50;;
75928;SDS011;64606;44.062;2.986;2023-07-13T05:41:36;2.70;;;1.73;;
75928;SDS011;64606;44.062;2.986;2023-07-13T05:44:03;4.68;;;1.80;;
75928;SDS011;64606;44.062;2.986;2023-07-13T05:46:29;5.15;;;1.95;;
75928;SDS011;64606;44.062;2.986;2023-07-13T05:48:56;2.15;;;1.60;;
75928;SDS011;64606;44.062;2.986;2023-07-13T05:51:22;4.18;;;1.60;;
75928;SDS011;64606;44.062;2.986;2023-07-13T05:53:48;3.00;;;1.60;;
75928;SDS011;64606;44.062;2.986;2023-07-13T05:56:14;2.95;;;1.70;;
75928;SDS011;64606;44.062;2.986;2023-07-13T05:58:40;3.65;;;1.75;;
75928;SDS011;64606;44.062;2.986;2023-07-13T06:01:09;2.97;;;1.77;;
75928;SDS011;64606;44.062;2.986;2023-07-13T06:03:36;2.95;;;1.52;;
75928;SDS011;64606;44.062;2.986;2023-07-13T06:06:05;5.03;;;2.10;;
75928;SDS011;64606;44.062;2.986;2023-07-13T06:08:31;8.07;;;1.75;;
75928;SDS011;64606;44.062;2.986;2023-07-13T06:11:07;4.25;;;1.63;;
75928;SDS011;64606;44.062;2.986;2023-07-13T06:13:34;3.60;;;1.60;;
75928;SDS011;64606;44.062;2.986;2023-07-13T06:16:00;8.25;;;1.85;;
75928;SDS011;64606;44.062;2.986;2023-07-13T06:18:29;5.30;;;1.60;;
75928;SDS011;64606;44.062;2.986;2023-07-13T06:20:55;2.88;;;1.88;;
75928;SDS011;64606;44.062;2.986;2023-07-13T06:23:22;4.93;;;1.73;;
75928;SDS011;64606;44.062;2.986;2023-07-13T06:25:48;6.72;;;1.50;;
75928;SDS011;64606;44.062;2.986;2023-07-13T06:28:14;4.75;;;1.90;;
75928;SDS011;64606;44.062;2.986;2023-07-13T06:30:40;3.53;;;1.60;;
75928;SDS011;64606;44.062;2.986;2023-07-13T06:33:06;2.65;;;1.48;;
75928;SDS011;64606;44.062;2.986;2023-07-13T06:35:32;3.28;;;1.40;;
75928;SDS011;64606;44.062;2.986;2023-07-13T06:37:59;2.95;;;1.75;;
75928;SDS011;64606;44.062;2.986;2023-07-13T06:40:25;3.78;;;1.25;;
75928;SDS011;64606;44.062;2.986;2023-07-13T06:42:54;2.00;;;1.20;;
75928;SDS011;64606;44.062;2.986;2023-07-13T06:45:20;3.85;;;1.33;;
75928;SDS011;64606;44.062;2.986;2023-07-13T06:47:46;3.70;;;1.40;;
75928;SDS011;64606;44.062;2.986;2023-07-13T06:50:12;4.00;;;1.20;;
75928;SDS011;64606;44.062;2.986;2023-07-13T06:52:38;2.78;;;1.23;;
75928;SDS011;64606;44.062;2.986;2023-07-13T06:55:04;4.25;;;1.10;;
75928;SDS011;64606;44.062;2.986;2023-07-13T06:57:30;4.25;;;1.30;;
75928;SDS011;64606;44.062;2.986;2023-07-13T06:59:57;2.22;;;1.42;;
75928;SDS011;64606;44.062;2.986;2023-07-13T07:02:23;6.63;;;1.67;;
75928;SDS011;64606;44.062;2.986;2023-07-13T07:04:49;6.45;;;1.63;;
75928;SDS011;64606;44.062;2.986;2023-07-13T07:07:15;3.53;;;1.40;;
75928;SDS011;64606;44.062;2.986;2023-07-13T07:09:41;2.97;;;1.13;;
75928;SDS011;64606;44.062;2.986;2023-07-13T07:12:07;7.43;;;1.20;;
75928;SDS011;64606;44.062;2.986;2023-07-13T07:14:33;3.80;;;1.30;;
75928;SDS011;64606;44.062;2.986;2023-07-13T07:17:00;2.47;;;1.30;;
75928;SDS011;64606;44.062;2.986;2023-07-13T07:19:27;3.25;;;1.20;;
75928;SDS011;64606;44.062;2.986;2023-07-13T07:21:53;1.27;;;0.95;;
75928;SDS011;64606;44.062;2.986;2023-07-13T07:24:19;3.17;;;1.30;;
75928;SDS011;64606;44.062;2.986;2023-07-13T07:26:46;3.05;;;1.10;;
75928;SDS011;64606;44.062;2.986;2023-07-13T07:29:12;3.10;;;1.45;;
75928;SDS011;64606;44.062;2.986;2023-07-13T07:31:38;2.95;;;1.50;;
75928;SDS011;64606;44.062;2.986;2023-07-13T07:34:04;3.47;;;1.10;;
75928;SDS011;64606;44.062;2.986;2023-07-13T07:36:30;3.50;;;1.30;;
75928;SDS011;64606;44.062;2.986;2023-07-13T07:38:56;2.75;;;1.00;;
75928;SDS011;64606;44.062;2.986;2023-07-13T07:41:22;5.00;;;1.38;;
75928;SDS011;64606;44.062;2.986;2023-07-13T07:43:48;4.18;;;1.20;;
75928;SDS011;64606;44.062;2.986;2023-07-13T07:46:14;2.80;;;1.10;;
75928;SDS011;64606;44.062;2.986;2023-07-13T07:48:41;6.40;;;1.58;;
75928;SDS011;64606;44.062;2.986;2023-07-13T07:51:07;4.15;;;1.23;;
75928;SDS011;64606;44.062;2.986;2023-07-13T07:53:33;2.63;;;1.10;;
75928;SDS011;64606;44.062;2.986;2023-07-13T07:55:59;4.85;;;1.20;;
75928;SDS011;64606;44.062;2.986;2023-07-13T07:58:25;5.15;;;1.13;;
75928;SDS011;64606;44.062;2.986;2023-07-13T08:00:51;10.50;;;2.05;;
75928;SDS011;64606;44.062;2.986;2023-07-13T08:03:17;5.63;;;1.55;;
75928;SDS011;64606;44.062;2.986;2023-07-13T08:05:43;39.15;;;6.18;;
75928;SDS011;64606;44.062;2.986;2023-07-13T08:08:09;22.63;;;4.03;;
75928;SDS011;64606;44.062;2.986;2023-07-13T08:10:36;5.93;;;1.92;;
75928;SDS011;64606;44.062;2.986;2023-07-13T08:13:02;3.10;;;1.20;;
75928;SDS011;64606;44.062;2.986;2023-07-13T08:15:28;2.83;;;0.90;;
75928;SDS011;64606;44.062;2.986;2023-07-13T08:17:54;3.63;;;1.30;;
75928;SDS011;64606;44.062;2.986;2023-07-13T08:20:20;2.80;;;0.90;;
75928;SDS011;64606;44.062;2.986;2023-07-13T08:22:46;2.88;;;1.08;;
75928;SDS011;64606;44.062;2.986;2023-07-13T08:25:13;2.58;;;1.00;;
75928;SDS011;64606;44.062;2.986;2023-07-13T08:27:39;2.50;;;1.02;;
75928;SDS011;64606;44.062;2.986;2023-07-13T08:30:05;1.70;;;0.70;;
75928;SDS011;64606;44.062;2.986;2023-07-13T08:32:32;3.63;;;0.90;;
75928;SDS011;64606;44.062;2.986;2023-07-13T08:34:58;2.08;;;0.80;;
75928;SDS011;64606;44.062;2.986;2023-07-13T08:37:24;2.65;;;0.80;;
75928;SDS011;64606;44.062;2.986;2023-07-13T08:39:50;2.25;;;1.00;;
75928;SDS011;64606;44.062;2.986;2023-07-13T08:42:31;6.10;;;1.00;;
75928;SDS011;64606;44.062;2.986;2023-07-13T08:47:24;1.95;;;0.80;;
75928;SDS011;64606;44.062;2.986;2023-07-13T08:49:50;1.92;;;0.80;;
75928;SDS011;64606;44.062;2.986;2023-07-13T08:52:22;2.00;;;0.93;;
75928;SDS011;64606;44.062;2.986;2023-07-13T08:57:19;2.08;;;0.90;;
75928;SDS011;64606;44.062;2.986;2023-07-13T08:59:46;1.88;;;0.70;;
75928;SDS011;64606;44.062;2.986;2023-07-13T09:07:33;1.42;;;0.93;;
75928;SDS011;64606;44.062;2.986;2023-07-13T09:10:04;3.15;;;0.80;;
75928;SDS011;64606;44.062;2.986;2023-07-13T09:15:04;3.78;;;1.10;;
75928;SDS011;64606;44.062;2.986;2023-07-13T09:17:35;2.45;;;0.90;;
75928;SDS011;64606;44.062;2.986;2023-07-13T09:22:35;3.50;;;0.90;;
75928;SDS011;64606;44.062;2.986;2023-07-13T09:25:22;1.80;;;1.00;;
75928;SDS011;64606;44.062;2.986;2023-07-13T09:27:50;2.72;;;1.10;;
75928;SDS011;64606;44.062;2.986;2023-07-13T09:30:24;3.85;;;1.13;;
75928;SDS011;64606;44.062;2.986;2023-07-13T09:32:54;4.75;;;1.23;;
75928;SDS011;64606;44.062;2.986;2023-07-13T09:35:25;2.88;;;0.95;;
75928;SDS011;64606;44.062;2.986;2023-07-13T09:37:58;4.22;;;1.48;;
75928;SDS011;64606;44.062;2.986;2023-07-13T09:40:28;2.90;;;1.58;;
75928;SDS011;64606;44.062;2.986;2023-07-13T09:42:56;2.92;;;1.05;;
75928;SDS011;64606;44.062;2.986;2023-07-13T09:45:27;4.05;;;1.30;;
75928;SDS011;64606;44.062;2.986;2023-07-13T09:48:04;2.78;;;1.25;;
75928;SDS011;64606;44.062;2.986;2023-07-13T09:50:30;5.93;;;1.40;;
75928;SDS011;64606;44.062;2.986;2023-07-13T09:52:56;2.92;;;1.23;;
75928;SDS011;64606;44.062;2.986;2023-07-13T09:57:51;2.13;;;0.90;;
75928;SDS011;64606;44.062;2.986;2023-07-13T10:00:28;4.82;;;1.45;;
75928;SDS011;64606;44.062;2.986;2023-07-13T10:03:05;5.63;;;1.23;;
75928;SDS011;64606;44.062;2.986;2023-07-13T10:05:41;2.97;;;1.20;;
75928;SDS011;64606;44.062;2.986;2023-07-13T10:08:26;2.63;;;1.00;;
75928;SDS011;64606;44.062;2.986;2023-07-13T10:13:28;4.15;;;1.15;;
75928;SDS011;64606;44.062;2.986;2023-07-13T10:15:55;2.28;;;1.02;;
75928;SDS011;64606;44.062;2.986;2023-07-13T10:18:21;4.03;;;1.30;;
75928;SDS011;64606;44.062;2.986;2023-07-13T10:20:48;7.32;;;1.13;;
75928;SDS011;64606;44.062;2.986;2023-07-13T10:23:15;2.72;;;1.00;;
75928;SDS011;64606;44.062;2.986;2023-07-13T10:25:45;1.92;;;1.05;;
75928;SDS011;64606;44.062;2.986;2023-07-13T10:28:22;5.53;;;1.10;;
75928;SDS011;64606;44.062;2.986;2023-07-13T10:30:51;3.33;;;0.90;;
75928;SDS011;64606;44.062;2.986;2023-07-13T10:33:18;3.17;;;1.10;;
75928;SDS011;64606;44.062;2.986;2023-07-13T10:35:45;4.38;;;1.15;;
75928;SDS011;64606;44.062;2.986;2023-07-13T10:38:13;2.85;;;1.00;;
75928;SDS011;64606;44.062;2.986;2023-07-13T10:43:24;3.03;;;0.90;;
75928;SDS011;64606;44.062;2.986;2023-07-13T10:45:51;1.80;;;0.80;;
75928;SDS011;64606;44.062;2.986;2023-07-13T10:48:19;1.45;;;0.90;;
75928;SDS011;64606;44.062;2.986;2023-07-13T10:50:48;1.80;;;0.90;;
75928;SDS011;64606;44.062;2.986;2023-07-13T10:53:30;3.30;;;0.80;;
75928;SDS011;64606;44.062;2.986;2023-07-13T10:56:00;3.53;;;0.80;;
75928;SDS011;64606;44.062;2.986;2023-07-13T10:58:34;1.98;;;1.00;;
75928;SDS011;64606;44.062;2.986;2023-07-13T11:03:27;3.38;;;1.00;;
75928;SDS011;64606;44.062;2.986;2023-07-13T11:06:33;2.45;;;0.80;;
75928;SDS011;64606;44.062;2.986;2023-07-13T11:18:45;4.25;;;0.90;;
75928;SDS011;64606;44.062;2.986;2023-07-13T11:21:15;3.97;;;0.90;;
75928;SDS011;64606;44.062;2.986;2023-07-13T11:23:42;2.97;;;0.88;;
75928;SDS011;64606;44.062;2.986;2023-07-13T11:28:54;2.20;;;0.80;;
75928;SDS011;64606;44.062;2.986;2023-07-13T11:31:20;3.75;;;1.05;;
75928;SDS011;64606;44.062;2.986;2023-07-13T11:33:50;2.22;;;0.88;;
75928;SDS011;64606;44.062;2.986;2023-07-13T11:36:17;2.60;;;0.77;;
75928;SDS011;64606;44.062;2.986;2023-07-13T11:38:51;2.45;;;0.70;;
75928;SDS011;64606;44.062;2.986;2023-07-13T11:43:50;2.78;;;0.75;;
75928;SDS011;64606;44.062;2.986;2023-07-13T11:46:21;2.35;;;0.88;;
75928;SDS011;64606;44.062;2.986;2023-07-13T11:48:48;2.13;;;0.77;;
75928;SDS011;64606;44.062;2.986;2023-07-13T11:51:28;2.10;;;0.90;;
75928;SDS011;64606;44.062;2.986;2023-07-13T11:53:56;2.40;;;0.80;;
75928;SDS011;64606;44.062;2.986;2023-07-13T11:56:23;1.70;;;0.90;;
75928;SDS011;64606;44.062;2.986;2023-07-13T11:58:54;2.78;;;0.93;;
75928;SDS011;64606;44.062;2.986;2023-07-13T12:01:26;4.25;;;0.80;;
75928;SDS011;64606;44.062;2.986;2023-07-13T12:03:57;2.40;;;1.00;;
75928;SDS011;64606;44.062;2.986;2023-07-13T12:06:28;1.48;;;1.00;;
75928;SDS011;64606;44.062;2.986;2023-07-13T12:08:56;3.60;;;0.88;;
75928;SDS011;64606;44.062;2.986;2023-07-13T12:11:22;1.55;;;0.93;;
75928;SDS011;64606;44.062;2.986;2023-07-13T12:13:49;5.68;;;1.00;;
75928;SDS011;64606;44.062;2.986;2023-07-13T12:16:16;5.35;;;1.05;;
75928;SDS011;64606;44.062;2.986;2023-07-13T12:18:43;2.40;;;0.75;;
75928;SDS011;64606;44.062;2.986;2023-07-13T12:21:14;2.45;;;0.80;;
75928;SDS011;64606;44.062;2.986;2023-07-13T12:23:43;1.23;;;0.90;;
75928;SDS011;64606;44.062;2.986;2023-07-13T12:26:09;2.90;;;0.82;;
75928;SDS011;64606;44.062;2.986;2023-07-13T12:28:38;4.38;;;1.00;;
75928;SDS011;64606;44.062;2.986;2023-07-13T12:31:06;1.98;;;1.05;;
75928;SDS011;64606;44.062;2.986;2023-07-13T12:33:33;1.00;;;0.65;;
75928;SDS011;64606;44.062;2.986;2023-07-13T12:36:03;2.35;;;0.90;;
75928;SDS011;64606;44.062;2.986;2023-07-13T12:38:30;3.08;;;1.10;;
75928;SDS011;64606;44.062;2.986;2023-07-13T12:40:56;1.92;;;0.80;;
75928;SDS011;64606;44.062;2.986;2023-07-13T12:43:23;2.10;;;0.80;;
75928;SDS011;64606;44.062;2.986;2023-07-13T12:45:59;1.48;;;0.80;;
75928;SDS011;64606;44.062;2.986;2023-07-13T12:48:26;1.80;;;0.90;;
75928;SDS011;64606;44.062;2.986;2023-07-13T12:50:53;2.75;;;0.93;;
75928;SDS011;64606;44.062;2.986;2023-07-13T12:53:23;2.28;;;1.13;;
75928;SDS011;64606;44.062;2.986;2023-07-13T12:55:54;2.88;;;0.70;;
75928;SDS011;64606;44.062;2.986;2023-07-13T12:58:25;2.85;;;0.80;;
75928;SDS011;64606;44.062;2.986;2023-07-13T13:00:53;2.05;;;0.85;;
75928;SDS011;64606;44.062;2.986;2023-07-13T13:03:33;3.42;;;1.10;;
75928;SDS011;64606;44.062;2.986;2023-07-13T13:06:02;3.55;;;1.13;;
75928;SDS011;64606;44.062;2.986;2023-07-13T13:08:33;1.27;;;0.80;;
75928;SDS011;64606;44.062;2.986;2023-07-13T13:11:00;2.15;;;0.80;;
75928;SDS011;64606;44.062;2.986;2023-07-13T13:13:27;1.48;;;0.70;;
75928;SDS011;64606;44.062;2.986;2023-07-13T13:15:53;3.30;;;0.77;;
75928;SDS011;64606;44.062;2.986;2023-07-13T13:18:21;1.45;;;0.80;;
75928;SDS011;64606;44.062;2.986;2023-07-13T13:20:49;1.15;;;0.80;;
75928;SDS011;64606;44.062;2.986;2023-07-13T13:23:16;3.65;;;0.73;;
75928;SDS011;64606;44.062;2.986;2023-07-13T13:25:46;1.52;;;0.80;;
75928;SDS011;64606;44.062;2.986;2023-07-13T13:28:14;3.50;;;0.88;;
75928;SDS011;64606;44.062;2.986;2023-07-13T13:30:41;2.08;;;0.70;;
75928;SDS011;64606;44.062;2.986;2023-07-13T13:33:11;3.17;;;1.10;;
75928;SDS011;64606;44.062;2.986;2023-07-13T13:35:38;3.38;;;1.23;;
75928;SDS011;64606;44.062;2.986;2023-07-13T13:38:09;2.33;;;0.77;;
75928;SDS011;64606;44.062;2.986;2023-07-13T13:40:35;3.38;;;1.00;;
75928;SDS011;64606;44.062;2.986;2023-07-13T13:43:01;2.58;;;0.70;;
75928;SDS011;64606;44.062;2.986;2023-07-13T13:45:27;3.05;;;0.85;;
75928;SDS011;64606;44.062;2.986;2023-07-13T13:47:54;3.10;;;0.70;;
75928;SDS011;64606;44.062;2.986;2023-07-13T13:50:21;3.03;;;0.68;;
75928;SDS011;64606;44.062;2.986;2023-07-13T13:52:47;1.48;;;0.80;;
75928;SDS011;64606;44.062;2.986;2023-07-13T13:55:18;4.50;;;0.90;;
75928;SDS011;64606;44.062;2.986;2023-07-13T13:57:45;1.75;;;0.70;;
75928;SDS011;64606;44.062;2.986;2023-07-13T14:00:12;1.70;;;0.75;;
75928;SDS011;64606;44.062;2.986;2023-07-13T14:02:42;2.78;;;1.10;;
75928;SDS011;64606;44.062;2.986;2023-07-13T14:05:12;1.77;;;0.77;;
75928;SDS011;64606;44.062;2.986;2023-07-13T14:07:39;3.30;;;0.70;;
75928;SDS011;64606;44.062;2.986;2023-07-13T14:10:10;1.77;;;0.82;;
75928;SDS011;64606;44.062;2.986;2023-07-13T14:12:36;5.70;;;1.23;;
75928;SDS011;64606;44.062;2.986;2023-07-13T14:15:03;1.30;;;0.70;;
75928;SDS011;64606;44.062;2.986;2023-07-13T14:17:29;1.50;;;0.77;;
75928;SDS011;64606;44.062;2.986;2023-07-13T14:19:58;2.67;;;0.77;;
75928;SDS011;64606;44.062;2.986;2023-07-13T14:22:25;1.10;;;0.60;;
75928;SDS011;64606;44.062;2.986;2023-07-13T14:24:54;1.40;;;0.68;;
75928;SDS011;64606;44.062;2.986;2023-07-13T14:27:22;2.13;;;0.70;;
75928;SDS011;64606;44.062;2.986;2023-07-13T14:29:48;3.13;;;0.80;;
75928;SDS011;64606;44.062;2.986;2023-07-13T14:32:15;2.03;;;0.70;;
75928;SDS011;64606;44.062;2.986;2023-07-13T14:34:41;2.80;;;0.95;;
75928;SDS011;64606;44.062;2.986;2023-07-13T14:37:11;1.15;;;0.70;;
75928;SDS011;64606;44.062;2.986;2023-07-13T14:39:39;2.17;;;0.80;;
75928;SDS011;64606;44.062;2.986;2023-07-13T14:42:08;2.05;;;0.63;;
75928;SDS011;64606;44.062;2.986;2023-07-13T14:44:34;2.50;;;0.70;;
75928;SDS011;64606;44.062;2.986;2023-07-13T14:47:02;5.32;;;1.00;;
75928;SDS011;64606;44.062;2.986;2023-07-13T14:51:55;3.35;;;0.90;;
75928;SDS011;64606;44.062;2.986;2023-07-13T14:54:22;1.92;;;0.80;;
75928;SDS011;64606;44.062;2.986;2023-07-13T14:56:49;1.95;;;0.80;;
75928;SDS011;64606;44.062;2.986;2023-07-13T14:59:16;3.45;;;1.00;;
75928;SDS011;64606;44.062;2.986;2023-07-13T15:01:46;1.27;;;0.70;;
75928;SDS011;64606;44.062;2.986;2023-07-13T15:04:12;1.00;;;0.52;;
75928;SDS011;64606;44.062;2.986;2023-07-13T15:06:58;1.23;;;0.73;;
75928;SDS011;64606;44.062;2.986;2023-07-13T15:09:25;2.70;;;0.80;;
75928;SDS011;64606;44.062;2.986;2023-07-13T15:11:54;1.58;;;0.70;;
75928;SDS011;64606;44.062;2.986;2023-07-13T15:14:21;2.40;;;0.70;;
75928;SDS011;64606;44.062;2.986;2023-07-13T15:16:48;2.85;;;0.85;;
75928;SDS011;64606;44.062;2.986;2023-07-13T15:19:16;3.55;;;1.08;;
75928;SDS011;64606;44.062;2.986;2023-07-13T15:21:42;2.55;;;0.95;;
75928;SDS011;64606;44.062;2.986;2023-07-13T15:24:09;3.88;;;0.73;;
75928;SDS011;64606;44.062;2.986;2023-07-13T15:26:36;2.53;;;0.82;;
75928;SDS011;64606;44.062;2.986;2023-07-13T15:29:04;5.10;;;0.90;;
75928;SDS011;64606;44.062;2.986;2023-07-13T15:31:30;4.90;;;0.60;;
75928;SDS011;64606;44.062;2.986;2023-07-13T15:33:57;4.88;;;0.75;;
75928;SDS011;64606;44.062;2.986;2023-07-13T15:36:24;1.35;;;0.63;;
75928;SDS011;64606;44.062;2.986;2023-07-13T15:38:51;2.83;;;1.00;;